createdAt,value
2022-11-16T00:00:21.338Z,37.63
2022-11-16T00:03:23.704Z,37.10
2022-11-16T00:06:26.606Z,36.70
2022-11-16T00:09:31.909Z,38.15
2022-11-16T00:12:34.053Z,35.30
2022-11-16T00:15:36.572Z,37.15
2022-11-16T00:18:38.640Z,34.42
2022-11-16T00:21:41.631Z,35.70
2022-11-16T00:24:43.705Z,37.47
2022-11-16T00:27:46.053Z,36.53
2022-11-16T00:30:57.160Z,38.63
2022-11-16T00:33:59.738Z,37.47
2022-11-16T00:37:02.711Z,36.95
2022-11-16T00:40:05.678Z,37.22
2022-11-16T00:43:07.977Z,36.00
2022-11-16T00:46:10.611Z,37.10
2022-11-16T00:49:12.794Z,36.85
2022-11-16T00:52:15.157Z,36.78
2022-11-16T00:55:17.230Z,36.25
2022-11-16T00:58:19.576Z,37.42
2022-11-16T01:01:23.858Z,34.70
2022-11-16T01:04:26.361Z,36.70
2022-11-16T01:07:28.528Z,35.28
2022-11-16T01:10:30.908Z,36.15
2022-11-16T01:13:33.206Z,34.58
2022-11-16T01:16:36.031Z,35.50
2022-11-16T01:19:38.740Z,35.92
2022-11-16T01:22:41.481Z,35.88
2022-11-16T01:25:43.697Z,36.80
2022-11-16T01:28:46.111Z,35.63
2022-11-16T01:31:48.522Z,36.45
2022-11-16T01:34:51.303Z,34.70
2022-11-16T01:37:54.331Z,35.55
2022-11-16T01:40:57.052Z,36.40
2022-11-16T01:44:02.797Z,35.90
2022-11-16T01:47:16.463Z,36.72
2022-11-16T01:50:20.698Z,35.78
2022-11-16T01:53:24.879Z,36.20
2022-11-16T01:56:27.795Z,35.08
2022-11-16T01:59:32.799Z,35.00
2022-11-16T02:02:35.198Z,34.47
2022-11-16T02:05:52.780Z,34.00
2022-11-16T02:09:49.773Z,32.80
2022-11-16T02:13:02.644Z,32.90
2022-11-16T02:16:39.063Z,33.55
2022-11-16T02:19:59.941Z,32.60
2022-11-16T02:23:04.862Z,32.95
2022-11-16T02:26:38.672Z,33.47
2022-11-16T02:29:45.495Z,33.17
2022-11-16T02:33:01.740Z,33.22
2022-11-16T02:36:07.627Z,33.58
2022-11-16T02:39:16.389Z,33.95
2022-11-16T02:42:26.322Z,34.20
2022-11-16T02:45:32.317Z,32.55
2022-11-16T02:48:39.050Z,32.53
2022-11-16T02:51:42.838Z,32.22
2022-11-16T02:54:45.261Z,31.80
2022-11-16T02:58:09.573Z,31.30
2022-11-16T03:01:19.018Z,32.00
2022-11-16T03:04:36.220Z,31.58
2022-11-16T03:07:46.279Z,29.50
2022-11-16T03:11:20.254Z,28.80
2022-11-16T03:14:29.344Z,29.63
2022-11-16T03:17:42.105Z,29.67
2022-11-16T03:20:48.079Z,28.98
2022-11-16T03:23:50.683Z,28.73
2022-11-16T03:27:02.277Z,30.15
2022-11-16T03:30:14.495Z,29.77
2022-11-16T03:33:38.762Z,29.23
2022-11-16T03:36:44.782Z,28.80
2022-11-16T03:39:48.723Z,29.35
2022-11-16T03:42:52.095Z,28.62
2022-11-16T03:45:55.238Z,31.25
2022-11-16T03:48:59.514Z,29.80
2022-11-16T03:52:02.261Z,30.98
2022-11-16T03:55:05.576Z,29.20
2022-11-16T03:58:09.153Z,30.20
2022-11-16T04:01:11.546Z,30.37
2022-11-16T04:04:35.101Z,29.55
2022-11-16T04:07:57.461Z,30.73
2022-11-16T04:11:20.282Z,30.98
2022-11-16T04:14:42.896Z,31.02
2022-11-16T04:18:04.275Z,30.60
2022-11-16T04:21:36.733Z,30.62
2022-11-16T04:24:44.075Z,30.80
2022-11-16T04:28:05.073Z,32.40
2022-11-16T04:31:26.077Z,32.10
2022-11-16T04:34:48.794Z,32.25
2022-11-16T04:37:53.277Z,32.35
2022-11-16T04:40:55.656Z,31.42
2022-11-16T04:43:58.857Z,32.40
2022-11-16T04:47:06.830Z,32.20
2022-11-16T04:50:09.829Z,33.58
2022-11-16T04:53:13.659Z,31.65
2022-11-16T04:56:18.219Z,33.08
2022-11-16T04:59:21.298Z,33.13
2022-11-16T05:02:23.669Z,32.95
2022-11-16T05:05:26.130Z,34.97
2022-11-16T05:08:28.726Z,33.88
2022-11-16T05:11:31.021Z,34.97
2022-11-16T05:14:33.961Z,33.65
2022-11-16T05:17:36.329Z,33.65
2022-11-16T05:20:58.148Z,34.28
2022-11-16T05:27:23.011Z,32.72
2022-11-16T05:30:25.425Z,36.38
2022-11-16T05:33:27.823Z,33.78
2022-11-16T05:36:29.913Z,33.30
2022-11-16T05:39:32.303Z,33.85
2022-11-16T05:42:34.684Z,34.40
2022-11-16T05:45:37.478Z,34.95
2022-11-16T05:48:41.626Z,34.25
2022-11-16T05:51:45.831Z,33.30
2022-11-16T05:54:48.409Z,34.75
2022-11-16T05:57:51.133Z,33.88
2022-11-16T06:00:53.293Z,32.55
2022-11-16T06:03:56.022Z,36.67
2022-11-16T06:06:58.776Z,35.88
2022-11-16T06:10:03.188Z,37.05
2022-11-16T06:13:06.672Z,36.08
2022-11-16T06:16:09.509Z,35.97
2022-11-16T06:19:11.690Z,35.85
2022-11-16T06:22:14.095Z,35.60
2022-11-16T06:25:16.207Z,37.15
2022-11-16T06:28:18.780Z,36.17
2022-11-16T06:31:21.204Z,36.33
2022-11-16T06:34:24.639Z,35.97
2022-11-16T06:37:27.011Z,36.85
2022-11-16T06:40:29.408Z,36.38
2022-11-16T06:43:31.872Z,36.70
2022-11-16T06:46:35.384Z,36.33
2022-11-16T06:49:38.010Z,35.80
2022-11-16T06:52:41.336Z,36.95
2022-11-16T06:55:43.630Z,36.65
2022-11-16T06:58:46.163Z,38.03
2022-11-16T07:01:49.068Z,38.22
2022-11-16T07:04:52.029Z,36.13
2022-11-16T07:07:55.325Z,37.50
2022-11-16T07:11:04.266Z,37.72
2022-11-16T07:14:08.371Z,38.70
2022-11-16T07:17:11.515Z,38.40
2022-11-16T07:20:15.067Z,39.00
2022-11-16T07:23:19.844Z,39.50
2022-11-16T07:26:22.751Z,38.40
2022-11-16T07:29:26.355Z,38.33
2022-11-16T07:32:35.544Z,39.85
2022-11-16T07:35:38.288Z,38.40
2022-11-16T07:38:40.572Z,37.78
2022-11-16T07:41:44.210Z,38.60
2022-11-16T07:44:47.233Z,38.80
2022-11-16T07:47:52.335Z,38.72
2022-11-16T07:51:03.305Z,38.67
2022-11-16T07:54:06.649Z,38.77
2022-11-16T07:57:08.853Z,38.42
2022-11-16T08:00:11.757Z,39.75
2022-11-16T08:03:19.234Z,40.25
2022-11-16T08:06:28.218Z,41.00
2022-11-16T08:09:30.742Z,39.90
2022-11-16T08:12:33.458Z,40.25
2022-11-16T08:15:35.545Z,38.28
2022-11-16T08:18:39.872Z,39.40
2022-11-16T08:21:42.348Z,38.00
2022-11-16T08:24:44.898Z,39.70
2022-11-16T08:27:47.765Z,39.85
2022-11-16T08:30:53.981Z,40.50
2022-11-16T08:33:56.808Z,39.30
2022-11-16T08:36:59.400Z,39.55
2022-11-16T08:40:03.621Z,39.85
2022-11-16T08:43:08.268Z,38.60
2022-11-16T08:46:11.102Z,39.13
2022-11-16T08:49:13.829Z,40.40
2022-11-16T08:52:16.017Z,39.03
2022-11-16T08:55:18.863Z,37.60
2022-11-16T08:58:22.637Z,37.97
2022-11-16T09:01:30.361Z,39.47
2022-11-16T09:04:36.843Z,39.70
2022-11-16T09:07:40.104Z,37.15
2022-11-16T09:10:42.227Z,38.22
2022-11-16T09:13:46.914Z,38.50
2022-11-16T09:16:49.057Z,38.78
2022-11-16T09:19:51.425Z,38.03
2022-11-16T09:22:53.518Z,37.92
2022-11-16T09:25:56.069Z,38.30
2022-11-16T09:29:00.176Z,38.05
2022-11-16T09:32:02.948Z,37.72
2022-11-16T09:35:05.334Z,37.58
2022-11-16T09:38:09.864Z,37.28
2022-11-16T09:41:15.033Z,36.10
2022-11-16T09:44:31.699Z,37.25
2022-11-16T09:47:36.698Z,37.33
2022-11-16T09:50:45.673Z,36.83
2022-11-16T09:53:58.349Z,37.95
2022-11-16T09:57:12.052Z,36.72
2022-11-16T10:00:23.662Z,50.20
2022-11-16T10:03:28.730Z,48.75
2022-11-16T10:07:02.764Z,40.97
2022-11-16T10:10:06.139Z,37.42
2022-11-16T10:13:31.592Z,38.65
2022-11-16T10:16:48.522Z,38.00
2022-11-16T10:20:07.357Z,38.38
2022-11-16T10:23:31.801Z,38.22
2022-11-16T10:26:56.160Z,37.28
2022-11-16T10:30:07.675Z,38.05
2022-11-16T10:33:22.007Z,36.00
2022-11-16T10:36:30.190Z,37.22
2022-11-16T10:39:34.122Z,35.47
2022-11-16T10:42:40.924Z,37.08
2022-11-16T10:46:00.815Z,37.42
2022-11-16T10:49:21.520Z,37.03
2022-11-16T10:52:24.119Z,37.83
2022-11-16T10:55:28.659Z,38.80
2022-11-16T10:58:50.004Z,36.47
2022-11-16T11:01:57.432Z,36.00
2022-11-16T11:05:20.266Z,37.15
2022-11-16T11:08:30.449Z,36.63
2022-11-16T11:11:51.278Z,36.05
2022-11-16T11:18:23.277Z,35.25
2022-11-16T11:21:27.526Z,35.28
2022-11-16T11:24:44.032Z,33.65
2022-11-16T11:27:47.370Z,34.10
2022-11-16T11:31:07.096Z,34.78
2022-11-16T11:34:09.384Z,34.55
2022-11-16T11:37:27.532Z,32.78
2022-11-16T11:40:30.961Z,33.88
2022-11-16T11:43:37.191Z,33.78
2022-11-16T11:47:35.281Z,34.10
2022-11-16T11:50:33.481Z,34.22
2022-11-16T11:53:59.241Z,34.75
2022-11-16T11:57:04.353Z,34.53
2022-11-16T12:00:07.670Z,33.03
2022-11-16T12:03:41.675Z,34.13
2022-11-16T12:06:54.074Z,32.10
2022-11-16T12:10:27.390Z,32.90
2022-11-16T12:14:08.720Z,32.60
2022-11-16T12:17:24.967Z,31.48
2022-11-16T12:21:00.789Z,30.67
2022-11-16T12:24:30.438Z,30.73
2022-11-16T12:28:03.949Z,31.30
2022-11-16T12:31:24.352Z,31.77
2022-11-16T12:34:52.500Z,30.08
2022-11-16T12:37:59.574Z,30.80
2022-11-16T12:41:49.977Z,30.05
2022-11-16T12:45:10.184Z,29.65
2022-11-16T12:48:33.384Z,28.85
2022-11-16T12:51:51.990Z,29.00
2022-11-16T12:55:28.478Z,27.52
2022-11-16T12:59:19.977Z,26.80
2022-11-16T13:02:47.138Z,26.60
2022-11-16T13:06:06.646Z,25.58
2022-11-16T13:09:30.025Z,26.42
2022-11-16T13:12:35.267Z,26.17
2022-11-16T13:15:40.695Z,27.20
2022-11-16T13:18:44.140Z,27.50
2022-11-16T13:22:11.512Z,27.62
2022-11-16T13:25:40.400Z,26.25
2022-11-16T13:29:22.090Z,27.67
2022-11-16T13:32:34.861Z,25.65
2022-11-16T13:35:38.589Z,27.08
2022-11-16T13:38:53.708Z,28.75
2022-11-16T13:42:11.398Z,24.45
2022-11-16T13:45:22.077Z,24.67
2022-11-16T13:51:29.517Z,24.50
2022-11-16T13:54:50.475Z,24.37
2022-11-16T13:57:55.611Z,24.00
2022-11-16T14:01:02.475Z,23.52
2022-11-16T14:04:34.770Z,22.95
2022-11-16T14:07:47.093Z,22.70
2022-11-16T14:10:52.016Z,22.73
2022-11-16T14:13:54.799Z,21.60
2022-11-16T14:16:57.154Z,21.98
2022-11-16T14:19:59.325Z,20.60
2022-11-16T14:23:09.085Z,21.50
2022-11-16T14:26:26.446Z,20.88
2022-11-16T14:29:47.669Z,19.15
2022-11-16T14:32:52.643Z,19.37
2022-11-16T14:35:55.682Z,19.55
2022-11-16T14:39:23.040Z,17.42
2022-11-16T14:42:38.207Z,18.58
2022-11-16T14:46:04.586Z,17.75
2022-11-16T14:49:13.743Z,17.05
2022-11-16T14:52:20.557Z,17.17
2022-11-16T14:55:25.677Z,15.93
2022-11-16T14:58:28.749Z,16.08
2022-11-16T15:01:38.887Z,15.50
2022-11-16T15:04:41.051Z,15.07
2022-11-16T15:07:45.099Z,15.45
2022-11-16T15:10:52.322Z,15.82
2022-11-16T15:13:55.480Z,15.88
2022-11-16T15:16:59.916Z,16.17
2022-11-16T15:20:14.117Z,16.98
2022-11-16T15:23:17.310Z,16.58
2022-11-16T15:26:23.877Z,17.20
2022-11-16T15:29:26.086Z,18.67
2022-11-16T15:32:28.778Z,18.60
2022-11-16T15:35:36.274Z,19.35
2022-11-16T15:38:38.776Z,19.85
2022-11-16T15:41:41.859Z,18.52
2022-11-16T15:44:44.828Z,19.67
2022-11-16T15:47:47.368Z,19.58
2022-11-16T15:51:15.887Z,20.12
2022-11-16T15:54:29.786Z,18.80
2022-11-16T15:57:32.146Z,19.00
2022-11-16T16:00:36.819Z,19.42
2022-11-16T16:03:44.842Z,18.48
2022-11-16T16:06:48.702Z,19.62
2022-11-16T16:10:12.319Z,18.40
2022-11-16T16:13:29.946Z,18.98
2022-11-16T16:16:37.649Z,19.12
2022-11-16T16:19:44.032Z,19.73
2022-11-16T16:22:46.574Z,20.08
2022-11-16T16:25:50.683Z,18.73
2022-11-16T16:28:53.297Z,17.85
2022-11-16T16:31:56.141Z,17.75
2022-11-16T16:35:07.352Z,18.87
2022-11-16T16:38:13.116Z,17.52
2022-11-16T16:41:23.749Z,18.42
2022-11-16T16:44:26.228Z,16.92
2022-11-16T16:47:28.753Z,17.73
2022-11-16T16:50:31.117Z,17.15
2022-11-16T16:53:33.795Z,16.60
2022-11-16T16:56:36.066Z,17.45
2022-11-16T16:59:38.428Z,15.48
2022-11-16T17:02:40.619Z,16.40
2022-11-16T17:05:43.202Z,15.77
2022-11-16T17:08:45.315Z,15.32
2022-11-16T17:11:48.110Z,16.05
2022-11-16T17:14:53.174Z,14.63
2022-11-16T17:17:57.771Z,15.98
2022-11-16T17:21:07.869Z,14.93
2022-11-16T17:24:10.477Z,15.27
2022-11-16T17:27:12.711Z,15.32
2022-11-16T17:30:15.423Z,15.55
2022-11-16T17:33:17.489Z,15.35
2022-11-16T17:36:20.428Z,15.27
2022-11-16T17:39:23.594Z,14.93
2022-11-16T17:42:25.938Z,14.35
2022-11-16T17:45:28.179Z,14.18
2022-11-16T17:48:30.598Z,15.43
2022-11-16T17:51:32.717Z,13.73
2022-11-16T17:54:35.061Z,15.10
2022-11-16T17:57:37.142Z,14.57
2022-11-16T18:00:39.474Z,13.45
2022-11-16T18:03:41.954Z,12.93
2022-11-16T18:06:44.028Z,13.02
2022-11-16T18:09:46.382Z,13.62
2022-11-16T18:12:48.574Z,15.48
2022-11-16T18:15:50.930Z,13.15
2022-11-16T18:19:00.748Z,12.90
2022-11-16T18:22:03.139Z,12.47
2022-11-16T18:25:05.620Z,12.30
2022-11-16T18:28:07.962Z,12.48
2022-11-16T18:31:12.862Z,13.13
2022-11-16T18:34:15.406Z,12.43
2022-11-16T18:37:17.460Z,13.23
2022-11-16T18:40:19.953Z,12.57
2022-11-16T18:43:22.309Z,12.27
2022-11-16T18:46:29.719Z,12.82
2022-11-16T18:49:31.784Z,13.07
2022-11-16T18:52:34.147Z,13.32
2022-11-16T18:55:36.202Z,13.18
2022-11-16T18:58:54.626Z,14.50
2022-11-16T19:01:56.735Z,14.10
2022-11-16T19:04:59.085Z,14.55
2022-11-16T19:08:01.167Z,14.00
2022-11-16T19:11:05.643Z,13.55
2022-11-16T19:14:07.949Z,14.60
2022-11-16T19:17:10.330Z,13.50
2022-11-16T19:20:12.787Z,13.55
2022-11-16T19:23:15.387Z,11.98
2022-11-16T19:26:18.905Z,12.60
2022-11-16T19:29:21.277Z,11.63
2022-11-16T19:32:23.391Z,11.00
2022-11-16T19:35:26.345Z,11.20
2022-11-16T19:38:29.277Z,9.77
2022-11-16T19:41:31.979Z,9.57
2022-11-16T19:44:34.054Z,9.57
2022-11-16T19:47:36.420Z,8.85
2022-11-16T19:50:38.531Z,8.45
2022-11-16T19:53:41.011Z,8.70
2022-11-16T19:56:43.606Z,8.25
2022-11-16T19:59:48.683Z,8.98
2022-11-16T20:02:57.101Z,8.80
2022-11-16T20:06:11.078Z,8.68
2022-11-16T20:09:13.227Z,8.77
2022-11-16T20:12:15.614Z,9.40
2022-11-16T20:15:18.130Z,9.00
2022-11-16T20:18:20.468Z,8.52
2022-11-16T20:21:32.914Z,9.88
2022-11-16T20:24:35.271Z,9.40
2022-11-16T20:27:37.423Z,9.52
2022-11-16T20:30:45.641Z,10.30
2022-11-16T20:33:52.578Z,10.23
2022-11-16T20:36:54.978Z,11.12
2022-11-16T20:39:57.323Z,10.35
2022-11-16T20:43:00.211Z,10.68
2022-11-16T20:46:02.316Z,10.55
2022-11-16T20:49:04.778Z,10.20
2022-11-16T20:52:06.859Z,11.02
2022-11-16T20:55:09.741Z,12.10
2022-11-16T20:58:12.184Z,11.80
2022-11-16T21:01:21.233Z,11.63
2022-11-16T21:04:23.411Z,11.48
2022-11-16T21:07:25.785Z,11.20
2022-11-16T21:10:28.744Z,10.82
2022-11-16T21:13:49.714Z,10.95
2022-11-16T21:16:51.830Z,11.82
2022-11-16T21:20:20.132Z,11.93
2022-11-16T21:23:16.549Z,11.70
2022-11-16T21:26:21.516Z,11.52
2022-11-16T21:29:25.912Z,12.25
2022-11-16T21:32:28.300Z,12.65
2022-11-16T21:35:30.467Z,12.30
2022-11-16T21:38:34.028Z,12.27
2022-11-16T21:41:36.138Z,13.70
2022-11-16T21:44:44.498Z,12.77
2022-11-16T21:47:46.599Z,12.68
2022-11-16T21:51:02.584Z,13.30
2022-11-16T21:54:04.884Z,13.20
2022-11-16T21:57:07.584Z,12.27
2022-11-16T22:00:10.570Z,11.95
2022-11-16T22:03:13.553Z,12.20
2022-11-16T22:06:35.119Z,12.00
2022-11-16T22:09:37.348Z,13.27
2022-11-16T22:12:39.801Z,13.52
2022-11-16T22:15:41.906Z,13.27
2022-11-16T22:18:44.561Z,14.40
2022-11-16T22:21:46.671Z,14.32
2022-11-16T22:24:49.084Z,14.65
2022-11-16T22:28:20.341Z,14.48
2022-11-16T22:31:14.923Z,13.48
2022-11-16T22:34:17.046Z,14.27
2022-11-16T22:37:19.382Z,12.80
2022-11-16T22:40:21.646Z,13.05
2022-11-16T22:43:27.054Z,13.48
2022-11-16T22:46:29.185Z,13.50
2022-11-16T22:49:31.680Z,14.30
2022-11-16T22:52:33.805Z,15.85
2022-11-16T22:55:38.068Z,15.52
2022-11-16T22:58:40.564Z,14.90
2022-11-16T23:01:43.206Z,16.17
2022-11-16T23:04:45.452Z,16.00
2022-11-16T23:07:47.809Z,16.30
2022-11-16T23:11:15.320Z,17.58
2022-11-16T23:14:36.363Z,19.52
2022-11-16T23:17:38.474Z,18.85
2022-11-16T23:20:59.652Z,19.33
2022-11-16T23:24:20.585Z,18.65
2022-11-16T23:27:30.148Z,19.40
2022-11-16T23:30:34.975Z,18.67
2022-11-16T23:33:47.764Z,18.85
2022-11-16T23:36:49.867Z,18.45
2022-11-16T23:39:52.282Z,18.73
2022-11-16T23:43:14.085Z,18.83
2022-11-16T23:46:16.435Z,17.90
2022-11-16T23:49:18.589Z,18.20
2022-11-16T23:52:20.932Z,19.15
2022-11-16T23:55:23.158Z,20.02
2022-11-16T23:58:25.518Z,18.98
